createdAt,value
2022-08-25T00:00:22.448Z,99048.00
2022-08-25T00:02:55.322Z,99046.19
2022-08-25T00:05:32.406Z,99052.91
2022-08-25T00:08:06.165Z,99050.81
2022-08-25T00:10:38.335Z,99053.84
2022-08-25T00:13:08.077Z,99050.19
2022-08-25T00:15:36.590Z,99043.94
2022-08-25T00:18:05.709Z,99051.13
2022-08-25T00:20:48.904Z,99046.50
2022-08-25T00:23:17.755Z,99048.88
2022-08-25T00:25:45.692Z,99049.41
2022-08-25T00:28:15.224Z,99053.25
2022-08-25T00:30:44.421Z,99047.06
2022-08-25T00:33:12.344Z,99048.41
2022-08-25T00:35:42.469Z,99025.88
2022-08-25T00:38:11.284Z,99035.53
2022-08-25T00:40:41.676Z,99028.06
2022-08-25T00:43:09.850Z,99030.88
2022-08-25T00:45:38.555Z,99022.88
2022-08-25T00:48:07.075Z,99003.25
2022-08-25T00:50:35.384Z,99010.94
2022-08-25T00:53:05.778Z,99006.31
2022-08-25T00:55:40.983Z,99001.09
2022-08-25T00:58:16.124Z,99006.66
2022-08-25T01:00:52.249Z,99011.03
2022-08-25T01:03:23.808Z,99011.88
2022-08-25T01:05:55.499Z,99010.09
2022-08-25T01:08:29.347Z,99006.66
2022-08-25T01:11:06.624Z,99011.34
2022-08-25T01:13:47.607Z,99012.44
2022-08-25T01:16:17.333Z,99007.34
2022-08-25T01:18:52.579Z,99009.97
2022-08-25T01:21:23.686Z,98996.31
2022-08-25T01:23:53.005Z,98999.91
2022-08-25T01:26:30.525Z,99002.47
2022-08-25T01:29:22.023Z,98997.03
2022-08-25T01:31:57.797Z,99011.97
2022-08-25T01:34:30.949Z,99002.59
2022-08-25T01:37:00.160Z,99003.38
2022-08-25T01:39:31.249Z,99008.44
2022-08-25T01:42:09.741Z,99009.22
2022-08-25T01:44:43.611Z,98999.94
2022-08-25T01:47:13.812Z,99004.50
2022-08-25T01:49:41.898Z,98993.84
2022-08-25T01:52:25.451Z,98990.50
2022-08-25T01:54:53.411Z,98978.47
2022-08-25T01:57:22.475Z,98979.72
2022-08-25T01:59:50.576Z,98992.06
2022-08-25T02:02:18.614Z,98990.81
2022-08-25T02:04:46.432Z,98996.53
2022-08-25T02:07:14.104Z,98994.25
2022-08-25T02:09:42.015Z,98988.06
2022-08-25T02:12:20.342Z,98992.44
2022-08-25T02:14:48.940Z,98996.03
2022-08-25T02:17:17.569Z,98991.66
2022-08-25T02:19:45.345Z,98992.44
2022-08-25T02:22:13.360Z,99001.19
2022-08-25T02:24:44.390Z,99006.34
2022-08-25T02:27:12.205Z,99010.25
2022-08-25T02:29:40.456Z,99015.22
2022-08-25T02:32:09.134Z,99001.03
2022-08-25T02:34:41.422Z,99009.31
2022-08-25T02:37:09.561Z,98998.72
2022-08-25T02:39:37.527Z,98998.72
2022-08-25T02:42:07.084Z,98997.16
2022-08-25T02:44:35.688Z,98991.22
2022-08-25T02:47:04.002Z,98991.50
2022-08-25T02:49:33.212Z,98993.06
2022-08-25T02:52:01.755Z,98993.84
2022-08-25T02:54:30.023Z,98986.84
2022-08-25T02:56:58.086Z,98992.06
2022-08-25T02:59:28.475Z,99009.56
2022-08-25T03:01:56.544Z,98994.63
2022-08-25T03:04:24.876Z,98996.75
2022-08-25T03:06:52.732Z,98994.19
2022-08-25T03:09:21.133Z,98996.97
2022-08-25T03:11:49.238Z,98995.94
2022-08-25T03:14:17.602Z,99002.91
2022-08-25T03:16:46.696Z,99004.41
2022-08-25T03:19:15.393Z,99009.81
2022-08-25T03:21:45.941Z,98997.16
2022-08-25T03:24:14.500Z,99000.81
2022-08-25T03:26:54.445Z,99004.66
2022-08-25T03:29:33.915Z,99012.63
2022-08-25T03:32:02.202Z,99007.38
2022-08-25T03:34:30.817Z,99009.97
2022-08-25T03:36:59.519Z,99003.72
2022-08-25T03:39:27.924Z,99007.38
2022-08-25T03:41:55.910Z,99009.97
2022-08-25T03:44:23.865Z,99009.97
2022-08-25T03:46:52.924Z,99012.28
2022-08-25T03:49:23.961Z,99011.50
2022-08-25T03:51:53.815Z,99013.84
2022-08-25T03:54:26.059Z,99022.94
2022-08-25T03:56:55.030Z,99012.38
2022-08-25T03:59:22.707Z,99016.53
2022-08-25T04:01:54.724Z,99021.44
2022-08-25T04:04:23.836Z,99022.75
2022-08-25T04:06:51.912Z,99020.41
2022-08-25T04:09:19.913Z,99018.88
2022-08-25T04:11:47.744Z,99019.16
2022-08-25T04:14:23.283Z,99014.25
2022-08-25T04:16:51.409Z,99024.88
2022-08-25T04:19:20.626Z,99024.88
2022-08-25T04:21:48.694Z,99034.44
2022-08-25T04:24:16.823Z,99019.97
2022-08-25T04:26:49.821Z,99019.50
2022-08-25T04:29:23.733Z,99022.59
2022-08-25T04:31:53.050Z,99018.47
2022-08-25T04:34:29.664Z,99010.72
2022-08-25T04:37:05.539Z,99006.09
2022-08-25T04:39:34.114Z,99002.06
2022-08-25T04:42:02.387Z,98993.59
2022-08-25T04:44:31.958Z,98996.50
2022-08-25T04:47:01.331Z,98976.31
2022-08-25T04:49:29.630Z,98992.94
2022-08-25T04:51:57.927Z,98993.72
2022-08-25T04:54:25.836Z,98996.06
2022-08-25T04:56:58.271Z,98993.03
2022-08-25T04:59:30.021Z,99004.38
2022-08-25T05:02:02.659Z,99006.94
2022-08-25T05:04:32.827Z,99006.94
2022-08-25T05:07:01.215Z,99007.25
2022-08-25T05:09:29.266Z,99008.03
2022-08-25T05:12:02.910Z,99005.97
2022-08-25T05:14:32.627Z,99003.94
2022-08-25T05:17:01.517Z,99007.06
2022-08-25T05:19:29.269Z,99001.91
2022-08-25T05:21:58.017Z,99016.13
2022-08-25T05:24:26.820Z,99002.00
2022-08-25T05:26:54.482Z,99002.31
2022-08-25T05:29:22.394Z,98994.09
2022-08-25T05:31:51.013Z,99000.31
2022-08-25T05:34:20.324Z,98979.38
2022-08-25T05:36:48.973Z,98988.56
2022-08-25T05:39:16.775Z,98983.69
2022-08-25T05:41:44.594Z,98990.72
2022-08-25T05:44:12.971Z,98984.31
2022-08-25T05:46:40.752Z,98988.97
2022-08-25T05:49:08.523Z,98993.41
2022-08-25T05:51:36.263Z,99001.16
2022-08-25T05:54:04.391Z,98996.78
2022-08-25T05:56:32.211Z,98995.22
2022-08-25T05:58:59.968Z,98996.31
2022-08-25T06:01:48.362Z,98988.31
2022-08-25T06:04:18.040Z,98990.94
2022-08-25T06:06:45.891Z,98989.44
2022-08-25T06:09:15.337Z,98987.91
2022-08-25T06:11:43.105Z,98993.66
2022-08-25T06:14:11.650Z,98989.28
2022-08-25T06:16:40.442Z,98999.44
2022-08-25T06:19:10.518Z,98987.59
2022-08-25T06:21:41.522Z,98996.75
2022-08-25T06:24:15.151Z,98993.19
2022-08-25T06:26:44.333Z,98992.75
2022-08-25T06:29:16.327Z,98996.91
2022-08-25T06:31:46.680Z,98998.00
2022-08-25T06:34:14.475Z,99013.53
2022-08-25T06:36:42.263Z,99008.34
2022-08-25T06:39:11.339Z,99008.88
2022-08-25T06:41:39.313Z,99013.53
2022-08-25T06:44:07.152Z,99003.97
2022-08-25T06:46:36.548Z,99008.72
2022-08-25T06:49:06.890Z,99003.84
2022-08-25T06:51:36.285Z,99006.44
2022-08-25T06:54:06.696Z,99001.59
2022-08-25T06:56:34.857Z,99005.03
2022-08-25T06:59:05.366Z,99005.38
2022-08-25T07:01:34.265Z,99003.63
2022-08-25T07:04:10.048Z,99006.22
2022-08-25T07:06:40.455Z,99010.63
2022-08-25T07:09:13.247Z,99002.09
2022-08-25T07:11:42.884Z,99006.78
2022-08-25T07:14:13.805Z,99000.84
2022-08-25T07:16:47.198Z,98994.63
2022-08-25T07:19:21.005Z,98993.13
2022-08-25T07:21:52.969Z,98993.41
2022-08-25T07:24:21.788Z,98994.75
2022-08-25T07:26:49.913Z,99007.22
2022-08-25T07:29:31.952Z,99002.88
2022-08-25T07:32:02.588Z,99003.41
2022-08-25T07:34:52.474Z,99008.63
2022-08-25T07:40:16.156Z,99006.19
2022-08-25T07:42:46.158Z,99005.19
2022-08-25T07:45:17.396Z,98999.50
2022-08-25T07:47:51.568Z,99000.53
2022-08-25T07:50:20.951Z,99004.94
2022-08-25T07:52:52.215Z,98996.38
2022-08-25T07:55:30.536Z,99001.06
2022-08-25T07:57:59.933Z,99006.78
2022-08-25T08:00:30.202Z,98998.00
2022-08-25T08:02:59.684Z,99000.09
2022-08-25T08:05:28.890Z,98980.91
2022-08-25T08:07:56.976Z,98991.81
2022-08-25T08:10:47.791Z,98990.50
2022-08-25T08:13:18.027Z,98995.44
2022-08-25T08:15:47.549Z,98994.41
2022-08-25T08:18:16.144Z,98984.50
2022-08-25T08:20:49.255Z,98984.75
2022-08-25T08:23:17.982Z,98996.69
2022-08-25T08:25:45.842Z,98991.25
2022-08-25T08:28:13.597Z,98993.81
2022-08-25T08:30:53.545Z,98986.00
2022-08-25T08:33:24.248Z,98980.78
2022-08-25T08:36:07.872Z,98981.00
2022-08-25T08:38:40.526Z,98977.91
2022-08-25T08:42:13.168Z,98973.44
2022-08-25T08:44:47.111Z,98974.44
2022-08-25T08:47:39.167Z,98970.75
2022-08-25T08:50:32.911Z,98970.44
2022-08-25T08:53:16.430Z,98971.97
2022-08-25T08:55:52.815Z,98966.44
2022-08-25T08:58:46.032Z,98977.81
2022-08-25T09:01:31.317Z,98969.81
2022-08-25T09:04:29.210Z,98973.44
2022-08-25T09:07:01.195Z,98972.13
2022-08-25T09:09:35.460Z,98968.44
2022-08-25T09:12:31.949Z,98953.78
2022-08-25T09:15:57.522Z,98962.06
2022-08-25T09:18:51.063Z,98965.72
2022-08-25T09:21:37.239Z,98958.50
2022-08-25T09:24:42.883Z,98951.66
2022-08-25T09:27:58.464Z,98948.50
2022-08-25T09:30:37.934Z,98938.03
2022-08-25T09:33:07.190Z,98927.00
2022-08-25T09:35:40.853Z,98930.47
2022-08-25T09:38:12.344Z,98929.47
2022-08-25T09:40:48.427Z,98917.63
2022-08-25T09:43:43.479Z,98926.06
2022-08-25T09:46:27.970Z,98924.72
2022-08-25T09:49:11.033Z,98923.69
2022-08-25T09:51:43.007Z,98924.09
2022-08-25T09:54:13.839Z,98920.88
2022-08-25T09:57:01.988Z,98919.16
2022-08-25T09:59:35.648Z,98906.69
2022-08-25T10:02:23.706Z,98910.22
2022-08-25T10:04:52.364Z,98904.06
2022-08-25T10:07:52.018Z,98902.47
2022-08-25T10:10:38.282Z,98898.34
2022-08-25T10:13:40.106Z,98883.78
2022-08-25T10:16:24.867Z,98884.09
2022-08-25T10:19:05.604Z,98884.09
2022-08-25T10:21:36.438Z,98886.22
2022-08-25T10:24:06.677Z,98876.03
2022-08-25T10:26:55.126Z,98874.69
2022-08-25T10:29:53.275Z,98871.09
2022-08-25T10:32:57.644Z,98869.03
2022-08-25T10:35:45.584Z,98859.56
2022-08-25T10:38:42.983Z,98864.41
2022-08-25T10:42:06.737Z,98859.34
2022-08-25T10:45:01.008Z,98852.75
2022-08-25T10:48:00.463Z,98845.22
2022-08-25T10:50:45.523Z,98841.22
2022-08-25T10:53:21.553Z,98842.78
2022-08-25T10:56:12.769Z,98835.06
2022-08-25T10:59:13.061Z,98831.38
2022-08-25T11:02:03.394Z,98818.41
2022-08-25T11:04:55.906Z,98820.75
2022-08-25T11:07:38.181Z,98818.38
2022-08-25T11:10:35.772Z,98812.78
2022-08-25T11:13:18.261Z,98801.47
2022-08-25T11:16:16.495Z,98803.09
2022-08-25T11:19:07.499Z,98807.34
2022-08-25T11:21:54.118Z,98802.09
2022-08-25T11:24:30.498Z,98799.47
2022-08-25T11:26:59.933Z,98794.81
2022-08-25T11:29:35.401Z,98789.72
2022-08-25T11:32:05.262Z,98787.47
2022-08-25T11:34:42.995Z,98781.16
2022-08-25T11:37:28.072Z,98781.28
2022-08-25T11:40:40.541Z,98767.59
2022-08-25T11:43:47.223Z,98760.03
2022-08-25T11:46:50.660Z,98762.44
2022-08-25T11:49:54.587Z,98756.69
2022-08-25T11:52:34.726Z,98763.09
2022-08-25T11:55:13.589Z,98754.00
2022-08-25T11:57:46.790Z,98762.44
2022-08-25T12:00:42.682Z,98754.78
2022-08-25T12:03:31.983Z,98755.47
2022-08-25T12:06:28.398Z,98740.22
2022-08-25T12:09:03.546Z,98748.13
2022-08-25T12:11:54.721Z,98741.56
2022-08-25T12:14:22.419Z,98736.69
2022-08-25T12:16:57.062Z,98748.69
2022-08-25T12:19:56.758Z,98740.66
2022-08-25T12:22:24.423Z,98743.56
2022-08-25T12:25:21.804Z,98739.06
2022-08-25T12:28:09.463Z,98738.94
2022-08-25T12:31:00.363Z,98736.84
2022-08-25T12:33:49.562Z,98738.84
2022-08-25T12:36:33.873Z,98743.84
2022-08-25T12:39:29.051Z,98734.75
2022-08-25T12:42:04.642Z,98731.03
2022-08-25T12:44:48.048Z,98732.00
2022-08-25T12:47:19.963Z,98731.66
2022-08-25T12:49:51.977Z,98725.66
2022-08-25T12:52:28.085Z,98728.88
2022-08-25T12:55:03.660Z,98723.66
2022-08-25T12:57:57.946Z,98714.56
2022-08-25T13:00:51.199Z,98715.47
2022-08-25T13:04:00.583Z,98703.66
2022-08-25T13:07:01.979Z,98703.03
2022-08-25T13:09:50.911Z,98700.69
2022-08-25T13:12:37.932Z,98706.69
2022-08-25T13:15:05.941Z,98698.09
2022-08-25T13:17:35.955Z,98700.31
2022-08-25T13:20:15.249Z,98697.56
2022-08-25T13:22:55.361Z,98686.53
2022-08-25T13:25:32.309Z,98683.78
2022-08-25T13:28:05.257Z,98677.94
2022-08-25T13:30:37.371Z,98680.91
2022-08-25T13:33:23.933Z,98671.31
2022-08-25T13:36:16.473Z,98675.78
2022-08-25T13:38:48.244Z,98676.09
2022-08-25T13:41:28.764Z,98675.50
2022-08-25T13:43:59.773Z,98676.38
2022-08-25T13:46:29.159Z,98681.47
2022-08-25T13:49:08.670Z,98671.28
2022-08-25T13:51:39.743Z,98667.13
2022-08-25T13:54:24.792Z,98673.63
2022-08-25T13:56:52.932Z,98670.06
2022-08-25T13:59:25.929Z,98672.69
2022-08-25T14:01:55.762Z,98672.53
2022-08-25T14:04:50.731Z,98665.13
2022-08-25T14:07:33.668Z,98673.16
2022-08-25T14:10:30.955Z,98658.16
2022-08-25T14:13:34.955Z,98664.31
2022-08-25T14:16:22.982Z,98665.84
2022-08-25T14:18:58.877Z,98655.72
2022-08-25T14:21:32.670Z,98651.72
2022-08-25T14:24:04.154Z,98650.66
2022-08-25T14:26:31.730Z,98637.88
2022-08-25T14:28:59.641Z,98639.50
2022-08-25T14:31:36.261Z,98636.53
2022-08-25T14:34:12.829Z,98632.50
2022-08-25T14:36:41.243Z,98630.78
2022-08-25T14:39:12.897Z,98642.44
2022-08-25T14:41:47.540Z,98637.59
2022-08-25T14:44:21.549Z,98634.16
2022-08-25T14:46:57.693Z,98630.13
2022-08-25T14:49:33.816Z,98632.00
2022-08-25T14:52:16.492Z,98623.66
2022-08-25T14:54:45.017Z,98630.78
2022-08-25T14:57:14.406Z,98636.03
2022-08-25T14:59:43.319Z,98633.56
2022-08-25T15:02:19.927Z,98634.53
2022-08-25T15:04:54.228Z,98633.59
2022-08-25T15:07:40.559Z,98638.97
2022-08-25T15:10:09.669Z,98637.94
2022-08-25T15:12:47.724Z,98632.84
2022-08-25T15:15:16.058Z,98630.72
2022-08-25T15:17:46.723Z,98632.31
2022-08-25T15:20:17.137Z,98631.09
2022-08-25T15:22:45.615Z,98630.63
2022-08-25T15:25:13.825Z,98627.06
2022-08-25T15:27:41.644Z,98630.47
2022-08-25T15:30:10.530Z,98635.25
2022-08-25T15:32:41.251Z,98634.66
2022-08-25T15:35:11.027Z,98621.69
2022-08-25T15:37:42.970Z,98622.91
2022-08-25T15:40:11.241Z,98628.34
2022-08-25T15:42:42.799Z,98623.69
2022-08-25T15:45:14.593Z,98622.47
2022-08-25T15:47:42.576Z,98633.72
2022-08-25T15:50:17.726Z,98641.56
2022-08-25T15:52:47.559Z,98635.81
2022-08-25T15:55:17.937Z,98639.66
2022-08-25T15:57:49.714Z,98632.13
2022-08-25T16:00:19.289Z,98626.72
2022-08-25T16:02:49.900Z,98631.50
2022-08-25T16:05:18.426Z,98626.56
2022-08-25T16:07:51.501Z,98629.19
2022-08-25T16:10:19.905Z,98624.22
2022-08-25T16:12:48.017Z,98626.84
2022-08-25T16:15:16.182Z,98622.03
2022-08-25T16:17:46.964Z,98620.81
2022-08-25T16:20:19.611Z,98619.38
2022-08-25T16:22:48.111Z,98615.81
2022-08-25T16:25:16.345Z,98626.09
2022-08-25T16:27:45.581Z,98615.19
2022-08-25T16:30:17.396Z,98610.72
2022-08-25T16:32:46.685Z,98612.69
2022-08-25T16:35:14.769Z,98609.47
2022-08-25T16:37:42.674Z,98608.81
2022-08-25T16:40:14.739Z,98615.09
2022-08-25T16:42:42.897Z,98617.97
2022-08-25T16:45:11.959Z,98610.53
2022-08-25T16:47:39.714Z,98611.50
2022-08-25T16:50:11.447Z,98609.13
2022-08-25T16:52:59.426Z,98618.75
2022-08-25T16:55:39.433Z,98620.72
2022-08-25T16:58:13.437Z,98619.00
2022-08-25T17:00:43.882Z,98625.91
2022-08-25T17:03:13.159Z,98618.75
2022-08-25T17:05:43.085Z,98623.91
2022-08-25T17:08:30.742Z,98630.13
2022-08-25T17:11:11.404Z,98633.44
2022-08-25T17:13:45.707Z,98639.81
2022-08-25T17:16:14.909Z,98641.56
2022-08-25T17:18:44.837Z,98649.03
2022-08-25T17:21:24.327Z,98654.19
2022-08-25T17:23:55.852Z,98647.56
2022-08-25T17:26:28.085Z,98647.00
2022-08-25T17:28:59.427Z,98650.28
2022-08-25T17:31:30.059Z,98653.59
2022-08-25T17:33:58.791Z,98651.66
2022-08-25T17:36:27.525Z,98651.84
2022-08-25T17:38:57.027Z,98654.13
2022-08-25T17:41:25.999Z,98652.16
2022-08-25T17:43:53.772Z,98647.13
2022-08-25T17:46:21.960Z,98653.50
2022-08-25T17:48:49.942Z,98656.75
2022-08-25T17:51:17.982Z,98665.97
2022-08-25T17:53:46.939Z,98664.03
2022-08-25T17:56:18.649Z,98662.53
2022-08-25T17:58:47.372Z,98665.53
2022-08-25T18:01:31.799Z,98673.69
2022-08-25T18:03:59.739Z,98671.97
2022-08-25T18:06:31.094Z,98674.44
2022-08-25T18:09:01.560Z,98680.56
2022-08-25T18:11:30.386Z,98689.78
2022-08-25T18:13:58.662Z,98694.84
2022-08-25T18:16:27.360Z,98689.97
2022-08-25T18:18:55.936Z,98691.88
2022-08-25T18:21:25.614Z,98695.56
2022-08-25T18:23:59.177Z,98696.13
2022-08-25T18:26:27.484Z,98696.44
2022-08-25T18:28:55.877Z,98690.25
2022-08-25T18:31:23.804Z,98696.50
2022-08-25T18:33:52.265Z,98703.59
2022-08-25T18:36:21.030Z,98697.44
2022-08-25T18:39:08.978Z,98702.19
2022-08-25T18:41:41.304Z,98703.81
2022-08-25T18:44:11.004Z,98697.09
2022-08-25T18:46:40.222Z,98701.81
2022-08-25T18:49:09.076Z,98709.88
2022-08-25T18:51:37.890Z,98715.09
2022-08-25T18:54:06.543Z,98705.56
2022-08-25T18:56:35.127Z,98703.56
2022-08-25T18:59:04.375Z,98707.22
2022-08-25T19:01:32.238Z,98713.53
2022-08-25T19:04:00.512Z,98709.41
2022-08-25T19:06:30.641Z,98700.88
2022-08-25T19:09:00.083Z,98718.63
2022-08-25T19:11:27.825Z,98718.09
2022-08-25T19:13:57.658Z,98718.91
2022-08-25T19:16:40.141Z,98724.63
2022-08-25T19:19:13.298Z,98720.47
2022-08-25T19:21:42.633Z,98722.56
2022-08-25T19:24:13.083Z,98727.28
2022-08-25T19:26:41.668Z,98729.41
2022-08-25T19:29:14.713Z,98721.66
2022-08-25T19:31:45.532Z,98715.44
2022-08-25T19:34:24.233Z,98716.78
2022-08-25T19:36:58.592Z,98721.19
2022-08-25T19:39:26.527Z,98712.38
2022-08-25T19:41:54.390Z,98713.69
2022-08-25T19:44:23.482Z,98721.75
2022-08-25T19:46:53.738Z,98722.84
2022-08-25T19:49:27.535Z,98727.00
2022-08-25T19:52:03.110Z,98730.41
2022-08-25T19:54:44.306Z,98734.28
2022-08-25T19:57:27.868Z,98730.91
2022-08-25T19:59:56.534Z,98724.69
2022-08-25T20:02:28.203Z,98738.69
2022-08-25T20:05:00.128Z,98746.22
2022-08-25T20:07:31.561Z,98734.06
2022-08-25T20:10:01.562Z,98739.53
2022-08-25T20:12:29.379Z,98735.66
2022-08-25T20:14:57.817Z,98728.66
2022-08-25T20:17:26.205Z,98729.22
2022-08-25T20:19:59.673Z,98729.75
2022-08-25T20:22:31.698Z,98736.50
2022-08-25T20:25:19.907Z,98728.19
2022-08-25T20:27:52.349Z,98730.53
2022-08-25T20:30:29.602Z,98725.63
2022-08-25T20:32:58.609Z,98718.41
2022-08-25T20:35:28.472Z,98719.44
2022-08-25T20:37:59.424Z,98717.38
2022-08-25T20:40:30.129Z,98727.22
2022-08-25T20:43:03.112Z,98729.34
2022-08-25T20:45:31.594Z,98726.22
2022-08-25T20:48:00.077Z,98711.97
2022-08-25T20:50:28.091Z,98722.34
2022-08-25T20:52:58.794Z,98726.22
2022-08-25T20:55:27.865Z,98725.72
2022-08-25T20:57:56.294Z,98724.66
2022-08-25T21:00:24.858Z,98729.59
2022-08-25T21:02:53.458Z,98725.72
2022-08-25T21:05:21.533Z,98725.72
2022-08-25T21:07:49.425Z,98729.88
2022-08-25T21:10:18.041Z,98734.06
2022-08-25T21:12:45.977Z,98728.59
2022-08-25T21:15:18.005Z,98730.97
2022-08-25T21:17:54.342Z,98727.34
2022-08-25T21:20:24.187Z,98729.16
2022-08-25T21:22:53.445Z,98736.16
2022-08-25T21:25:21.877Z,98729.97
2022-08-25T21:27:49.581Z,98731.25
2022-08-25T21:30:18.239Z,98725.81
2022-08-25T21:32:52.903Z,98726.59
2022-08-25T21:35:23.956Z,98730.22
2022-08-25T21:37:53.828Z,98719.88
2022-08-25T21:40:23.194Z,98727.66
2022-08-25T21:42:52.499Z,98729.47
2022-08-25T21:45:21.864Z,98720.13
2022-08-25T21:47:50.120Z,98723.22
2022-08-25T21:50:20.262Z,98722.44
2022-08-25T21:52:48.371Z,98718.28
2022-08-25T21:55:23.204Z,98719.84
2022-08-25T21:57:51.521Z,98713.63
2022-08-25T22:00:21.232Z,98727.09
2022-08-25T22:02:50.211Z,98727.63
2022-08-25T22:05:18.245Z,98727.13
2022-08-25T22:07:45.970Z,98723.47
2022-08-25T22:10:17.990Z,98726.84
2022-08-25T22:12:48.330Z,98723.97
2022-08-25T22:15:17.926Z,98719.31
2022-08-25T22:17:48.127Z,98719.56
2022-08-25T22:20:18.050Z,98718.28
2022-08-25T22:22:46.204Z,98717.25
2022-08-25T22:25:14.113Z,98715.94
2022-08-25T22:27:42.398Z,98718.03
2022-08-25T22:30:11.413Z,98710.00
2022-08-25T22:32:39.422Z,98711.56
2022-08-25T22:35:08.142Z,98713.38
2022-08-25T22:37:37.428Z,98718.03
2022-08-25T22:40:06.057Z,98710.25
2022-08-25T22:42:33.859Z,98717.25
2022-08-25T22:45:01.621Z,98709.72
2022-08-25T22:47:29.459Z,98716.44
2022-08-25T22:49:59.170Z,98716.72
2022-08-25T22:52:31.963Z,98716.97
2022-08-25T22:55:02.871Z,98719.81
2022-08-25T22:57:30.753Z,98712.31
2022-08-25T22:59:59.354Z,98715.41
2022-08-25T23:02:30.256Z,98718.25
2022-08-25T23:04:58.213Z,98716.44
2022-08-25T23:07:29.509Z,98712.56
2022-08-25T23:10:02.567Z,98712.53
2022-08-25T23:12:30.750Z,98701.63
2022-08-25T23:14:58.479Z,98707.84
2022-08-25T23:17:29.229Z,98703.19
2022-08-25T23:19:56.963Z,98707.59
2022-08-25T23:22:24.665Z,98706.25
2022-08-25T23:24:54.873Z,98714.03
2022-08-25T23:27:22.679Z,98706.53
2022-08-25T23:29:51.277Z,98707.03
2022-08-25T23:32:19.063Z,98694.84
2022-08-25T23:34:47.402Z,98695.13
2022-08-25T23:37:16.299Z,98692.03
2022-08-25T23:39:49.391Z,98696.91
2022-08-25T23:42:19.800Z,98701.34
2022-08-25T23:44:49.689Z,98693.59
2022-08-25T23:47:18.796Z,98693.59
2022-08-25T23:49:48.256Z,98692.03
2022-08-25T23:52:17.525Z,98688.66
2022-08-25T23:54:47.837Z,98687.34
2022-08-25T23:57:15.786Z,98695.34
2022-08-25T23:59:43.561Z,98686.78
